createdAt,value
2017-08-09T00:00:11.260Z,74.90
2017-08-09T00:02:38.688Z,74.90
2017-08-09T00:05:06.125Z,75.80
2017-08-09T00:07:33.571Z,75.00
2017-08-09T00:10:01.011Z,75.00
2017-08-09T00:12:28.469Z,75.30
2017-08-09T00:14:56.668Z,75.60
2017-08-09T00:17:24.103Z,75.60
2017-08-09T00:19:51.554Z,75.60
2017-08-09T00:22:19.935Z,75.90
2017-08-09T00:24:47.369Z,75.80
2017-08-09T00:27:15.582Z,76.50
2017-08-09T00:29:43.050Z,76.50
2017-08-09T00:32:10.500Z,77.50
2017-08-09T00:34:37.934Z,77.30
2017-08-09T00:37:05.428Z,77.20
2017-08-09T00:39:32.883Z,77.20
2017-08-09T00:42:00.360Z,77.20
2017-08-09T00:44:27.960Z,76.90
2017-08-09T00:46:56.149Z,77.10
2017-08-09T00:49:23.580Z,77.00
2017-08-09T00:51:51.800Z,76.90
2017-08-09T00:54:19.235Z,76.70
2017-08-09T00:56:46.678Z,77.00
2017-08-09T00:59:14.097Z,76.90
2017-08-09T01:01:41.568Z,76.90
2017-08-09T01:04:09.005Z,76.90
2017-08-09T01:06:36.435Z,76.80
2017-08-09T01:09:03.888Z,76.60
2017-08-09T01:11:31.329Z,76.30
2017-08-09T01:13:58.752Z,75.40
2017-08-09T01:16:26.175Z,75.20
2017-08-09T01:18:53.605Z,75.10
2017-08-09T01:21:21.052Z,75.20
2017-08-09T01:23:48.484Z,75.10
2017-08-09T01:26:15.937Z,75.40
2017-08-09T01:28:44.137Z,76.30
2017-08-09T01:31:11.569Z,76.30
2017-08-09T01:33:39.129Z,76.40
2017-08-09T01:36:06.548Z,76.30
2017-08-09T01:38:33.992Z,76.70
2017-08-09T01:41:01.415Z,76.70
2017-08-09T01:43:28.839Z,77.00
2017-08-09T01:45:57.051Z,77.00
2017-08-09T01:48:24.512Z,77.00
2017-08-09T01:50:51.937Z,76.90
2017-08-09T01:53:20.133Z,76.50
2017-08-09T01:55:47.569Z,76.50
2017-08-09T01:58:15.078Z,76.20
2017-08-09T02:00:42.536Z,76.20
2017-08-09T02:03:23.080Z,76.50
2017-08-09T02:05:50.525Z,76.50
2017-08-09T02:08:18.014Z,77.00
2017-08-09T02:10:45.443Z,76.80
2017-08-09T02:13:12.869Z,76.70
2017-08-09T02:15:40.297Z,76.70
2017-08-09T02:18:07.722Z,76.70
2017-08-09T02:20:35.164Z,76.70
2017-08-09T02:23:03.364Z,76.80
2017-08-09T02:25:30.865Z,76.80
2017-08-09T02:27:58.292Z,76.70
2017-08-09T02:30:25.721Z,76.80
2017-08-09T02:32:53.199Z,77.10
2017-08-09T02:35:20.640Z,77.00
2017-08-09T02:37:48.091Z,77.60
2017-08-09T02:40:15.540Z,77.60
2017-08-09T02:42:42.987Z,78.00
2017-08-09T02:45:11.173Z,78.40
2017-08-09T02:47:38.600Z,78.20
2017-08-09T02:50:06.827Z,78.70
2017-08-09T02:52:34.248Z,78.60
2017-08-09T02:55:02.440Z,79.10
2017-08-09T02:57:29.886Z,79.10
2017-08-09T02:59:57.341Z,78.90
2017-08-09T03:02:25.565Z,80.70
2017-08-09T03:04:53.024Z,79.80
2017-08-09T03:07:20.459Z,79.70
2017-08-09T03:09:47.916Z,80.20
2017-08-09T03:12:15.366Z,80.00
2017-08-09T03:14:42.821Z,80.40
2017-08-09T03:17:10.267Z,80.50
2017-08-09T03:19:37.704Z,80.30
2017-08-09T03:22:05.909Z,80.50
2017-08-09T03:24:33.345Z,80.40
2017-08-09T03:27:00.877Z,80.30
2017-08-09T03:29:28.280Z,81.00
2017-08-09T03:31:55.729Z,80.60
2017-08-09T03:34:23.167Z,81.10
2017-08-09T03:36:50.625Z,81.10
2017-08-09T03:39:18.078Z,81.10
2017-08-09T03:41:46.283Z,82.00
2017-08-09T03:44:13.729Z,81.90
2017-08-09T03:46:41.173Z,81.80
2017-08-09T03:49:08.688Z,82.70
2017-08-09T03:51:36.108Z,82.40
2017-08-09T03:54:03.551Z,82.50
2017-08-09T03:56:30.991Z,82.80
2017-08-09T03:58:58.448Z,82.70
2017-08-09T04:01:25.880Z,82.90
2017-08-09T04:03:53.337Z,82.60
2017-08-09T04:06:20.749Z,82.80
2017-08-09T04:08:48.229Z,82.70
2017-08-09T04:11:15.658Z,82.70
2017-08-09T04:13:43.097Z,83.00
2017-08-09T04:16:10.517Z,82.90
2017-08-09T04:18:38.714Z,83.70
2017-08-09T04:21:06.201Z,83.60
2017-08-09T04:23:33.666Z,83.80
2017-08-09T04:26:01.091Z,83.40
2017-08-09T04:28:28.542Z,84.00
2017-08-09T04:30:55.973Z,83.90
2017-08-09T04:33:23.401Z,83.50
2017-08-09T04:35:50.839Z,83.80
2017-08-09T04:38:18.262Z,83.60
2017-08-09T04:40:46.456Z,83.00
2017-08-09T04:43:13.908Z,83.00
2017-08-09T04:45:41.327Z,82.90
2017-08-09T04:48:09.527Z,82.90
2017-08-09T04:50:36.978Z,82.80
2017-08-09T04:53:05.156Z,83.90
2017-08-09T04:55:32.590Z,83.80
2017-08-09T04:58:00.789Z,83.90
2017-08-09T05:00:28.245Z,83.90
2017-08-09T05:02:56.432Z,84.00
2017-08-09T05:05:23.853Z,84.00
2017-08-09T05:07:51.294Z,83.60
2017-08-09T05:10:18.719Z,83.40
2017-08-09T05:12:46.160Z,83.30
2017-08-09T05:15:13.571Z,83.00
2017-08-09T05:17:41.782Z,82.40
2017-08-09T05:20:09.208Z,82.40
2017-08-09T05:22:36.650Z,82.00
2017-08-09T05:25:04.840Z,81.60
2017-08-09T05:27:32.272Z,81.50
2017-08-09T05:29:59.821Z,80.80
2017-08-09T05:32:27.256Z,80.50
2017-08-09T05:34:54.687Z,80.40
2017-08-09T05:37:22.170Z,80.10
2017-08-09T05:39:49.567Z,80.10
2017-08-09T05:42:17.775Z,79.50
2017-08-09T05:44:45.230Z,79.50
2017-08-09T05:47:12.653Z,79.20
2017-08-09T05:49:40.867Z,79.10
2017-08-09T05:52:08.354Z,79.00
2017-08-09T05:54:35.800Z,79.20
2017-08-09T05:57:03.249Z,79.10
2017-08-09T05:59:30.689Z,78.90
2017-08-09T06:01:58.144Z,79.00
2017-08-09T06:04:25.585Z,79.20
2017-08-09T06:06:52.999Z,79.40
2017-08-09T06:09:20.439Z,79.50
2017-08-09T06:11:47.891Z,79.70
2017-08-09T06:14:15.353Z,79.90
2017-08-09T06:16:42.793Z,79.70
2017-08-09T06:19:10.249Z,79.40
2017-08-09T06:21:37.700Z,79.30
2017-08-09T06:24:05.137Z,79.30
2017-08-09T06:26:32.564Z,79.30
2017-08-09T06:29:00.785Z,79.50
2017-08-09T06:31:28.199Z,79.30
2017-08-09T06:33:56.407Z,79.10
2017-08-09T06:36:23.820Z,79.10
2017-08-09T06:38:51.288Z,78.70
2017-08-09T06:41:18.708Z,79.60
2017-08-09T06:43:46.909Z,78.60
2017-08-09T06:46:14.322Z,78.50
2017-08-09T06:48:42.518Z,77.40
2017-08-09T06:51:09.973Z,78.00
2017-08-09T06:53:37.413Z,78.10
2017-08-09T06:56:04.853Z,78.50
2017-08-09T06:58:32.293Z,77.90
2017-08-09T07:00:59.724Z,79.50
2017-08-09T07:03:27.142Z,78.30
2017-08-09T07:05:55.684Z,77.80
2017-08-09T07:08:23.105Z,77.80
2017-08-09T07:10:50.529Z,78.00
2017-08-09T07:13:18.720Z,77.60
2017-08-09T07:15:46.171Z,76.80
2017-08-09T07:18:13.620Z,76.00
2017-08-09T07:20:41.830Z,75.50
2017-08-09T07:23:09.351Z,75.40
2017-08-09T07:25:36.795Z,75.00
2017-08-09T07:28:04.221Z,74.70
2017-08-09T07:30:31.650Z,74.80
2017-08-09T07:32:59.104Z,74.80
2017-08-09T07:35:26.520Z,74.60
2017-08-09T07:37:54.720Z,75.30
2017-08-09T07:40:22.157Z,74.50
2017-08-09T07:42:50.384Z,74.40
2017-08-09T07:45:17.780Z,74.40
2017-08-09T07:47:45.978Z,73.70
2017-08-09T07:50:13.410Z,73.70
2017-08-09T07:52:41.626Z,72.90
2017-08-09T07:55:09.145Z,72.90
2017-08-09T07:57:36.572Z,73.00
2017-08-09T08:00:04.048Z,73.00
2017-08-09T08:02:31.463Z,72.80
2017-08-09T08:04:58.891Z,72.70
2017-08-09T08:07:26.396Z,72.30
2017-08-09T08:09:53.806Z,72.40
2017-08-09T08:12:21.251Z,72.70
2017-08-09T08:14:49.495Z,72.80
2017-08-09T08:17:16.927Z,72.70
2017-08-09T08:19:44.357Z,73.20
2017-08-09T08:22:11.791Z,72.70
2017-08-09T08:24:40.033Z,72.60
2017-08-09T08:27:07.493Z,72.60
2017-08-09T08:29:34.938Z,72.40
2017-08-09T08:32:02.376Z,71.60
2017-08-09T08:34:29.818Z,70.60
2017-08-09T08:36:57.250Z,70.50
2017-08-09T08:39:24.697Z,69.10
2017-08-09T08:41:52.151Z,69.90
2017-08-09T08:44:19.615Z,70.00
2017-08-09T08:46:47.078Z,71.00
2017-08-09T08:49:14.501Z,71.10
2017-08-09T08:51:41.970Z,70.70
2017-08-09T08:54:09.414Z,69.80
2017-08-09T08:56:36.842Z,69.60
2017-08-09T08:59:04.323Z,69.80
2017-08-09T09:01:31.837Z,69.50
2017-08-09T09:03:59.271Z,69.60
2017-08-09T09:06:26.792Z,69.40
2017-08-09T09:08:54.236Z,69.30
2017-08-09T09:11:21.657Z,68.80
2017-08-09T09:13:49.117Z,68.70
2017-08-09T09:16:16.553Z,67.50
2017-08-09T09:18:44.000Z,68.00
2017-08-09T09:21:11.438Z,67.80
2017-08-09T09:23:40.154Z,67.00
2017-08-09T09:26:07.580Z,66.90
2017-08-09T09:28:35.005Z,66.40
2017-08-09T09:31:02.445Z,65.30
2017-08-09T09:33:29.899Z,65.50
2017-08-09T09:35:57.363Z,66.40
2017-08-09T09:38:24.808Z,66.60
2017-08-09T09:40:52.249Z,66.70
2017-08-09T09:43:19.675Z,65.00
2017-08-09T09:45:47.093Z,64.20
2017-08-09T09:48:14.524Z,63.50
2017-08-09T09:50:41.987Z,63.30
2017-08-09T09:53:09.545Z,63.20
2017-08-09T09:55:36.975Z,62.70
2017-08-09T09:58:04.376Z,62.20
2017-08-09T10:00:31.813Z,60.80
2017-08-09T10:02:59.252Z,60.00
2017-08-09T10:05:26.700Z,60.00
2017-08-09T10:07:54.153Z,60.00
2017-08-09T10:10:21.563Z,60.20
2017-08-09T10:12:49.764Z,59.10
2017-08-09T10:15:17.193Z,59.50
2017-08-09T10:17:44.622Z,59.00
2017-08-09T10:20:12.059Z,58.70
2017-08-09T10:22:39.494Z,58.60
2017-08-09T10:25:06.926Z,58.80
2017-08-09T10:27:35.121Z,59.40
2017-08-09T10:30:02.549Z,59.30
2017-08-09T10:32:30.744Z,58.80
2017-08-09T10:34:58.201Z,58.80
2017-08-09T10:37:25.637Z,58.70
2017-08-09T10:39:53.837Z,56.70
2017-08-09T10:42:21.280Z,56.70
2017-08-09T10:44:48.808Z,55.20
2017-08-09T10:47:16.241Z,56.30
2017-08-09T10:49:43.669Z,56.50
2017-08-09T10:52:11.158Z,56.30
2017-08-09T10:54:38.650Z,56.50
2017-08-09T10:57:06.084Z,56.60
2017-08-09T10:59:33.750Z,56.50
2017-08-09T11:02:01.202Z,56.50
2017-08-09T11:04:28.856Z,56.60
2017-08-09T11:06:56.303Z,57.10
2017-08-09T11:09:23.758Z,57.90
2017-08-09T11:11:51.188Z,58.10
2017-08-09T11:14:18.636Z,57.90
2017-08-09T11:16:47.098Z,56.70
2017-08-09T11:19:14.520Z,56.70
2017-08-09T11:21:41.955Z,57.40
2017-08-09T11:24:09.444Z,56.90
2017-08-09T11:26:36.897Z,56.80
2017-08-09T11:29:04.334Z,56.80
2017-08-09T11:31:31.764Z,57.10
2017-08-09T11:33:59.273Z,57.10
2017-08-09T11:36:26.729Z,56.90
2017-08-09T11:38:54.152Z,56.20
2017-08-09T11:41:21.621Z,55.30
2017-08-09T11:43:49.044Z,54.00
2017-08-09T11:46:16.551Z,53.70
2017-08-09T11:48:44.004Z,53.70
2017-08-09T11:51:11.481Z,53.80
2017-08-09T11:53:38.906Z,53.20
2017-08-09T11:56:06.375Z,53.40
2017-08-09T11:58:33.784Z,52.70
2017-08-09T12:01:01.207Z,52.70
2017-08-09T12:03:28.646Z,51.80
2017-08-09T12:05:56.092Z,51.90
2017-08-09T12:08:23.524Z,52.90
2017-08-09T12:10:50.952Z,53.30
2017-08-09T12:13:18.406Z,52.60
2017-08-09T12:15:45.834Z,51.10
2017-08-09T12:18:13.386Z,50.30
2017-08-09T12:20:40.816Z,48.80
2017-08-09T12:23:08.273Z,47.90
2017-08-09T12:25:35.700Z,46.90
2017-08-09T12:28:03.203Z,46.30
2017-08-09T12:30:30.661Z,47.00
2017-08-09T12:32:58.148Z,48.30
2017-08-09T12:35:25.553Z,48.40
2017-08-09T12:37:52.980Z,45.90
2017-08-09T12:40:20.414Z,42.60
2017-08-09T12:42:48.848Z,40.60
2017-08-09T12:45:16.302Z,40.30
2017-08-09T12:47:43.740Z,38.60
2017-08-09T12:50:11.160Z,37.80
2017-08-09T12:52:38.604Z,36.40
2017-08-09T12:55:06.047Z,35.10
2017-08-09T12:57:33.462Z,34.60
2017-08-09T13:00:00.937Z,37.50
2017-08-09T13:02:28.368Z,40.40
2017-08-09T13:04:55.801Z,39.50
2017-08-09T13:07:24.054Z,36.30
2017-08-09T13:09:51.529Z,36.20
2017-08-09T13:12:19.052Z,33.80
2017-08-09T13:14:46.498Z,34.40
2017-08-09T13:17:14.027Z,36.40
2017-08-09T13:19:42.212Z,36.40
2017-08-09T13:22:09.716Z,36.30
2017-08-09T13:24:37.148Z,37.90
2017-08-09T13:27:04.586Z,40.20
2017-08-09T13:29:32.000Z,41.60
2017-08-09T13:32:00.211Z,38.30
2017-08-09T13:34:27.714Z,37.50
2017-08-09T13:36:55.172Z,35.20
2017-08-09T13:39:22.716Z,35.00
2017-08-09T13:41:50.265Z,34.20
2017-08-09T13:44:17.717Z,32.40
2017-08-09T13:46:45.229Z,30.60
2017-08-09T13:49:13.457Z,28.40
2017-08-09T13:51:40.923Z,28.40
2017-08-09T13:54:08.365Z,28.30
2017-08-09T13:56:35.822Z,28.00
2017-08-09T13:59:03.280Z,29.60
2017-08-09T14:01:30.765Z,32.40
2017-08-09T14:03:58.208Z,34.70
2017-08-09T14:06:25.652Z,35.90
2017-08-09T14:08:53.211Z,35.40
2017-08-09T14:11:20.669Z,35.50
2017-08-09T14:13:48.186Z,37.30
2017-08-09T14:16:15.697Z,37.50
2017-08-09T14:18:43.136Z,35.00
2017-08-09T14:21:10.553Z,33.90
2017-08-09T14:23:38.069Z,35.50
2017-08-09T14:26:05.512Z,36.40
2017-08-09T14:28:32.937Z,37.90
2017-08-09T14:31:00.364Z,38.90
2017-08-09T14:33:27.805Z,39.50
2017-08-09T14:35:55.238Z,40.80
2017-08-09T14:38:22.743Z,41.00
2017-08-09T14:40:50.941Z,35.40
2017-08-09T14:43:18.371Z,35.40
2017-08-09T14:45:46.568Z,34.10
2017-08-09T14:48:14.004Z,34.00
2017-08-09T14:50:41.452Z,34.70
2017-08-09T14:53:09.693Z,34.30
2017-08-09T14:55:37.172Z,34.30
2017-08-09T14:58:05.367Z,33.30
2017-08-09T15:00:32.887Z,33.10
2017-08-09T15:03:00.429Z,31.80
2017-08-09T15:05:27.840Z,30.60
2017-08-09T15:07:55.265Z,30.20
2017-08-09T15:10:23.468Z,30.10
2017-08-09T15:12:50.904Z,30.00
2017-08-09T15:15:19.110Z,30.00
2017-08-09T15:17:48.246Z,30.30
2017-08-09T15:20:15.670Z,30.30
2017-08-09T15:22:43.088Z,30.50
2017-08-09T15:25:10.524Z,30.00
2017-08-09T15:27:37.984Z,31.70
2017-08-09T15:30:06.201Z,31.40
2017-08-09T15:32:33.629Z,31.40
2017-08-09T15:35:01.818Z,28.70
2017-08-09T15:37:29.250Z,28.70
2017-08-09T15:39:57.462Z,28.90
2017-08-09T15:42:24.969Z,28.90
2017-08-09T15:44:52.423Z,28.60
2017-08-09T15:47:19.835Z,29.70
2017-08-09T15:49:47.344Z,30.50
2017-08-09T15:52:14.802Z,30.80
2017-08-09T15:54:42.296Z,30.00
2017-08-09T15:57:09.754Z,30.40
2017-08-09T15:59:37.174Z,30.90
2017-08-09T16:02:05.365Z,33.40
2017-08-09T16:04:32.795Z,33.30
2017-08-09T16:07:00.247Z,34.40
2017-08-09T16:09:27.652Z,35.90
2017-08-09T16:11:55.080Z,37.20
2017-08-09T16:14:22.540Z,36.70
2017-08-09T16:16:50.728Z,35.40
2017-08-09T16:19:18.152Z,35.40
2017-08-09T16:21:46.429Z,36.70
2017-08-09T16:24:13.857Z,36.60
2017-08-09T16:26:41.343Z,36.70
2017-08-09T16:29:09.603Z,36.80
2017-08-09T16:31:37.060Z,37.20
2017-08-09T16:34:04.467Z,38.20
2017-08-09T16:36:31.952Z,39.30
2017-08-09T16:38:59.427Z,40.30
2017-08-09T16:41:26.860Z,39.70
2017-08-09T16:43:54.294Z,39.20
2017-08-09T16:46:21.825Z,38.90
2017-08-09T16:48:49.258Z,39.20
2017-08-09T16:51:16.689Z,39.00
2017-08-09T16:53:44.103Z,39.90
2017-08-09T16:56:11.554Z,40.50
2017-08-09T16:58:38.997Z,41.30
2017-08-09T17:01:06.473Z,41.90
2017-08-09T17:03:33.901Z,42.50
2017-08-09T17:06:01.329Z,42.60
2017-08-09T17:08:28.755Z,42.80
2017-08-09T17:10:56.169Z,42.80
2017-08-09T17:13:24.361Z,43.40
2017-08-09T17:15:51.862Z,43.40
2017-08-09T17:18:19.283Z,43.10
2017-08-09T17:20:46.711Z,41.70
2017-08-09T17:23:14.909Z,40.60
2017-08-09T17:25:42.356Z,40.60
2017-08-09T17:28:09.812Z,41.00
2017-08-09T17:30:37.334Z,41.10
2017-08-09T17:33:04.763Z,40.80
2017-08-09T17:35:32.180Z,41.40
2017-08-09T17:37:59.625Z,42.10
2017-08-09T17:40:27.829Z,44.00
2017-08-09T17:42:55.250Z,43.90
2017-08-09T17:45:23.478Z,45.20
2017-08-09T17:47:50.900Z,45.20
2017-08-09T17:50:18.365Z,45.40
2017-08-09T17:52:45.821Z,46.00
2017-08-09T17:55:13.305Z,46.10
2017-08-09T17:57:40.759Z,46.30
2017-08-09T18:00:08.186Z,46.10
2017-08-09T18:02:35.624Z,46.10
2017-08-09T18:05:03.097Z,46.20
2017-08-09T18:07:30.541Z,46.40
2017-08-09T18:09:58.145Z,46.80
2017-08-09T18:12:25.582Z,47.00
2017-08-09T18:14:53.025Z,47.20
2017-08-09T18:17:20.476Z,48.00
2017-08-09T18:19:47.926Z,48.00
2017-08-09T18:22:15.357Z,48.50
2017-08-09T18:24:43.556Z,49.00
2017-08-09T18:27:11.014Z,48.90
2017-08-09T18:29:38.501Z,49.00
2017-08-09T18:32:05.946Z,49.50
2017-08-09T18:34:33.381Z,49.70
2017-08-09T18:37:00.800Z,50.20
2017-08-09T18:39:28.991Z,50.70
2017-08-09T18:41:57.189Z,51.00
2017-08-09T18:44:24.616Z,50.90
2017-08-09T18:46:52.817Z,51.40
2017-08-09T18:49:20.267Z,51.70
2017-08-09T18:51:47.707Z,51.90
2017-08-09T18:54:15.897Z,53.20
2017-08-09T18:56:43.331Z,52.50
2017-08-09T18:59:11.534Z,52.70
2017-08-09T19:01:38.955Z,52.60
2017-08-09T19:04:07.168Z,53.80
2017-08-09T19:06:34.627Z,53.50
2017-08-09T19:09:02.040Z,53.60
2017-08-09T19:11:29.482Z,53.50
2017-08-09T19:13:56.914Z,53.70
2017-08-09T19:16:24.340Z,53.80
2017-08-09T19:18:51.754Z,54.20
2017-08-09T19:21:19.183Z,54.30
2017-08-09T19:23:46.624Z,54.60
2017-08-09T19:26:14.044Z,55.10
2017-08-09T19:28:41.469Z,55.10
2017-08-09T19:31:08.889Z,55.60
2017-08-09T19:33:37.085Z,55.80
2017-08-09T19:36:04.536Z,55.70
2017-08-09T19:38:31.964Z,56.00
2017-08-09T19:40:59.433Z,56.00
2017-08-09T19:43:27.625Z,56.40
2017-08-09T19:45:55.109Z,56.40
2017-08-09T19:48:22.554Z,55.90
2017-08-09T19:50:50.000Z,56.20
2017-08-09T19:53:17.433Z,56.40
2017-08-09T19:55:45.719Z,55.80
2017-08-09T19:58:13.173Z,55.70
2017-08-09T20:00:41.393Z,55.60
2017-08-09T20:03:08.808Z,55.60
2017-08-09T20:05:36.255Z,55.90
2017-08-09T20:08:04.448Z,56.10
2017-08-09T20:10:31.884Z,56.10
2017-08-09T20:13:00.077Z,56.00
2017-08-09T20:15:27.533Z,56.00
2017-08-09T20:17:54.984Z,56.00
2017-08-09T20:20:23.164Z,56.50
2017-08-09T20:22:50.621Z,56.30
2017-08-09T20:25:18.068Z,56.40
2017-08-09T20:27:45.550Z,56.80
2017-08-09T20:30:12.976Z,56.80
2017-08-09T20:32:40.417Z,57.10
2017-08-09T20:35:08.613Z,57.40
2017-08-09T20:37:36.070Z,57.20
2017-08-09T20:40:03.524Z,57.40
2017-08-09T20:42:30.963Z,57.30
2017-08-09T20:44:59.182Z,56.70
2017-08-09T20:47:26.616Z,56.70
2017-08-09T20:49:54.077Z,56.70
2017-08-09T20:52:21.514Z,57.00
2017-08-09T20:54:49.721Z,57.20
2017-08-09T20:57:17.184Z,57.10
2017-08-09T20:59:44.593Z,57.30
2017-08-09T21:02:12.802Z,59.00
2017-08-09T21:04:40.245Z,59.00
2017-08-09T21:07:07.705Z,59.50
2017-08-09T21:09:35.170Z,61.40
2017-08-09T21:12:02.607Z,62.10
2017-08-09T21:14:30.076Z,63.00
2017-08-09T21:16:57.502Z,63.90
2017-08-09T21:19:24.956Z,64.20
2017-08-09T21:21:52.397Z,64.00
2017-08-09T21:24:20.616Z,63.60
2017-08-09T21:26:48.043Z,63.40
2017-08-09T21:29:15.475Z,65.30
2017-08-09T21:31:42.904Z,65.00
2017-08-09T21:34:10.366Z,65.00
2017-08-09T21:36:37.833Z,64.50
2017-08-09T21:39:05.273Z,65.20
2017-08-09T21:41:32.690Z,64.70
2017-08-09T21:44:00.114Z,65.00
2017-08-09T21:46:28.311Z,64.40
2017-08-09T21:48:55.726Z,64.20
2017-08-09T21:51:23.172Z,63.90
2017-08-09T21:53:50.601Z,64.50
2017-08-09T21:56:18.064Z,64.60
2017-08-09T21:58:45.477Z,65.40
2017-08-09T22:01:13.673Z,66.40
2017-08-09T22:03:41.131Z,66.40
2017-08-09T22:06:08.565Z,65.70
2017-08-09T22:08:35.994Z,66.90
2017-08-09T22:11:03.452Z,66.90
2017-08-09T22:13:30.903Z,67.10
2017-08-09T22:15:58.342Z,66.60
2017-08-09T22:18:25.780Z,65.90
2017-08-09T22:20:53.234Z,68.20
2017-08-09T22:23:20.665Z,69.50
2017-08-09T22:25:48.116Z,69.70
2017-08-09T22:28:15.548Z,69.50
2017-08-09T22:30:43.004Z,69.80
2017-08-09T22:33:10.511Z,69.70
2017-08-09T22:35:37.966Z,69.80
2017-08-09T22:38:06.166Z,70.50
2017-08-09T22:40:33.606Z,70.50
2017-08-09T22:43:01.059Z,71.10
2017-08-09T22:45:28.504Z,71.60
2017-08-09T22:47:55.942Z,71.60
2017-08-09T22:50:24.878Z,71.50
2017-08-09T22:52:52.313Z,71.40
2017-08-09T22:55:19.768Z,71.00
2017-08-09T22:57:48.049Z,70.70
2017-08-09T23:00:15.494Z,70.60
2017-08-09T23:02:42.912Z,71.60
2017-08-09T23:05:10.378Z,71.30
2017-08-09T23:07:37.815Z,71.30
2017-08-09T23:10:05.254Z,70.90
2017-08-09T23:12:32.726Z,70.60
2017-08-09T23:15:00.161Z,71.00
2017-08-09T23:17:27.613Z,71.20
2017-08-09T23:19:55.082Z,70.90
2017-08-09T23:22:22.533Z,71.60
2017-08-09T23:24:49.965Z,70.70
2017-08-09T23:27:17.393Z,70.90
2017-08-09T23:29:45.618Z,71.30
2017-08-09T23:32:13.056Z,70.20
2017-08-09T23:34:40.476Z,70.90
2017-08-09T23:37:07.905Z,71.70
2017-08-09T23:39:35.316Z,71.60
2017-08-09T23:42:02.772Z,71.90
2017-08-09T23:44:30.204Z,71.30
2017-08-09T23:46:57.629Z,71.50
2017-08-09T23:49:25.056Z,73.60
2017-08-09T23:51:52.496Z,74.50
2017-08-09T23:54:19.934Z,75.60
2017-08-09T23:56:48.260Z,76.70
2017-08-09T23:59:15.717Z,76.50
